Time;durP1;ratioP1;P1;durP2;ratioP2;P2;SDS_P1;SDS_P2;PMS_P1;PMS_P2;Temp;Humidity;BMP_temperature;BMP_pressure;BME280_temperature;BME280_humidity;BME280_pressure;Samples;Min_cycle;Max_cycle;Signal;HPM_P1;HPM_P2
2023/03/19 00:01:03;;;;;;;74.28;30.25;;;;;;;;;;5115474;28;20088;-76
2023/03/19 00:03:28;;;;;;;73.18;30.13;;;;;;;;;;5114112;28;20087;-76
2023/03/19 00:05:54;;;;;;;82.65;30.85;;;;;;;;;;5115720;28;20122;-76
2023/03/19 00:08:19;;;;;;;75.13;31.48;;;;;;;;;;5096950;28;20027;-76
2023/03/19 00:10:45;;;;;;;83.28;32.92;;;;;;;;;;5114041;28;20031;-76
2023/03/19 00:13:10;;;;;;;87.47;36.75;;;;;;;;;;5096694;28;20020;-77
2023/03/19 00:15:36;;;;;;;92.10;37.60;;;;;;;;;;5113936;28;20138;-76
2023/03/19 00:18:03;;;;;;;93.32;36.70;;;;;;;;;;5113810;28;20028;-76
2023/03/19 00:20:29;;;;;;;94.18;36.80;;;;;;;;;;5114079;28;20034;-76
2023/03/19 00:22:54;;;;;;;87.07;36.58;;;;;;;;;;5114840;28;20028;-76
2023/03/19 00:25:20;;;;;;;94.55;37.97;;;;;;;;;;5096641;28;20031;-76
2023/03/19 00:27:45;;;;;;;89.85;35.83;;;;;;;;;;5114581;28;20050;-77
2023/03/19 00:30:11;;;;;;;74.85;30.30;;;;;;;;;;5113706;28;20019;-76
2023/03/19 00:32:38;;;;;;;71.03;31.48;;;;;;;;;;5114687;28;20019;-76
2023/03/19 00:35:05;;;;;;;85.55;36.90;;;;;;;;;;5114019;28;20103;-75
2023/03/19 00:37:31;;;;;;;72.72;29.70;;;;;;;;;;5114468;28;20063;-77
2023/03/19 00:39:56;;;;;;;65.88;28.33;;;;;;;;;;5114599;28;20042;-75
2023/03/19 00:42:22;;;;;;;59.95;26.38;;;;;;;;;;5096333;28;20035;-76
2023/03/19 00:44:47;;;;;;;58.95;24.80;;;;;;;;;;5113423;28;20063;-75
2023/03/19 00:47:13;;;;;;;60.08;23.50;;;;;;;;;;5114694;28;20260;-75
2023/03/19 00:49:38;;;;;;;63.83;22.83;;;;;;;;;;5114506;28;20028;-76
2023/03/19 00:52:04;;;;;;;53.47;19.98;;;;;;;;;;5096220;28;20039;-75
2023/03/19 00:54:31;;;;;;;48.97;20.23;;;;;;;;;;5113190;28;20107;-76
2023/03/19 00:56:56;;;;;;;52.15;20.25;;;;;;;;;;5079750;28;20437;-75
2023/03/19 00:59:24;;;;;;;50.28;21.35;;;;;;;;;;5113585;28;20027;-75
2023/03/19 01:01:50;;;;;;;48.45;20.25;;;;;;;;;;5096489;28;20059;-75
2023/03/19 01:04:16;;;;;;;51.75;20.08;;;;;;;;;;5130318;27;20031;-76
2023/03/19 01:06:42;;;;;;;52.85;20.48;;;;;;;;;;5113234;28;20030;-75
2023/03/19 01:09:07;;;;;;;49.05;20.73;;;;;;;;;;5113027;28;20028;-76
2023/03/19 01:11:33;;;;;;;43.60;18.67;;;;;;;;;;5112988;28;20454;-76
2023/03/19 01:13:58;;;;;;;48.45;19.73;;;;;;;;;;5113207;28;20028;-76
2023/03/19 01:16:24;;;;;;;50.00;21.50;;;;;;;;;;5113054;28;20047;-75
2023/03/19 01:18:49;;;;;;;55.47;20.52;;;;;;;;;;5079667;28;20019;-76
2023/03/19 01:21:15;;;;;;;51.58;20.63;;;;;;;;;;5112940;28;20363;-75
2023/03/19 01:23:41;;;;;;;44.50;19.38;;;;;;;;;;5095198;28;20498;-75
2023/03/19 01:26:07;;;;;;;43.30;19.70;;;;;;;;;;5112548;28;20020;-74
2023/03/19 01:28:32;;;;;;;47.88;19.65;;;;;;;;;;5113108;28;20122;-76
2023/03/19 01:30:59;;;;;;;43.17;19.08;;;;;;;;;;5112645;28;20176;-76
2023/03/19 01:33:25;;;;;;;45.28;19.52;;;;;;;;;;5112750;28;20027;-75
2023/03/19 01:35:50;;;;;;;50.58;19.73;;;;;;;;;;5095988;28;20122;-76
2023/03/19 01:38:16;;;;;;;48.60;19.38;;;;;;;;;;5113863;28;20030;-77
2023/03/19 01:40:46;;;;;;;42.42;19.38;;;;;;;;;;5095464;28;20093;-75
2023/03/19 01:43:22;;;;;;;45.33;19.65;;;;;;;;;;5113607;28;20024;-75
2023/03/19 01:45:49;;;;;;;47.33;19.88;;;;;;;;;;5130216;28;20020;-75
2023/03/19 01:48:45;;;;;;;38.63;18.30;;;;;;;;;;5132945;27;20016;-76
2023/03/19 01:51:12;;;;;;;51.38;21.05;;;;;;;;;;5105924;28;20051;-76
2023/03/19 01:53:38;;;;;;;55.13;21.98;;;;;;;;;;5116765;27;20024;-75
2023/03/19 01:56:15;;;;;;;54.50;23.25;;;;;;;;;;5133935;27;20476;-76
2023/03/19 01:58:41;;;;;;;63.55;24.08;;;;;;;;;;5133633;27;20164;-76
2023/03/19 02:01:06;;;;;;;68.25;25.65;;;;;;;;;;5116547;28;20114;-74
2023/03/19 02:03:32;;;;;;;61.78;26.75;;;;;;;;;;5116093;28;20119;-75
2023/03/19 02:05:58;;;;;;;65.88;27.25;;;;;;;;;;5133884;27;20073;-76
2023/03/19 02:08:23;;;;;;;71.45;27.52;;;;;;;;;;5099155;28;20462;-76
2023/03/19 02:10:49;;;;;;;76.03;26.65;;;;;;;;;;5117550;28;20104;-76
2023/03/19 02:13:14;;;;;;;65.53;26.48;;;;;;;;;;5099456;28;20369;-76
2023/03/19 02:15:39;;;;;;;81.38;33.67;;;;;;;;;;5099357;28;20106;-76
2023/03/19 02:18:05;;;;;;;70.68;26.08;;;;;;;;;;5116173;28;20034;-76
2023/03/19 02:20:34;;;;;;;54.75;22.77;;;;;;;;;;5116052;28;20364;-75
2023/03/19 02:23:18;;;;;;;57.28;22.05;;;;;;;;;;5132875;27;20035;-75
2023/03/19 02:25:46;;;;;;;49.05;18.77;;;;;;;;;;5101445;28;20445;-75
2023/03/19 02:28:14;;;;;;;47.53;18.70;;;;;;;;;;5117203;28;20038;-76
2023/03/19 02:30:41;;;;;;;46.42;16.95;;;;;;;;;;5133665;27;20361;-76
2023/03/19 02:33:11;;;;;;;41.85;16.70;;;;;;;;;;5133370;27;20031;-76
2023/03/19 02:35:36;;;;;;;36.35;15.32;;;;;;;;;;5115902;28;20024;-76
2023/03/19 02:38:02;;;;;;;35.08;14.95;;;;;;;;;;5115733;28;20020;-75
2023/03/19 02:40:37;;;;;;;42.72;14.82;;;;;;;;;;5098597;28;20399;-75
2023/03/19 02:43:02;;;;;;;43.40;16.95;;;;;;;;;;5116360;27;20039;-75
2023/03/19 02:45:28;;;;;;;42.28;16.45;;;;;;;;;;5098930;28;20085;-75
2023/03/19 02:47:54;;;;;;;40.17;16.75;;;;;;;;;;5149994;27;20442;-76
2023/03/19 02:50:20;;;;;;;38.97;15.57;;;;;;;;;;5115949;28;20020;-76
2023/03/19 02:52:45;;;;;;;37.47;15.15;;;;;;;;;;5117091;28;20028;-76
2023/03/19 02:55:11;;;;;;;38.00;14.85;;;;;;;;;;5116723;28;20110;-75
2023/03/19 02:57:36;;;;;;;41.33;16.08;;;;;;;;;;5115417;28;20023;-75
2023/03/19 03:00:03;;;;;;;37.35;15.60;;;;;;;;;;5115494;28;20054;-75
2023/03/19 03:02:29;;;;;;;47.13;18.20;;;;;;;;;;5115453;28;20042;-76
2023/03/19 03:04:55;;;;;;;46.03;18.08;;;;;;;;;;5081006;28;20024;-76
2023/03/19 03:07:21;;;;;;;45.50;16.95;;;;;;;;;;5081206;28;20126;-77
2023/03/19 03:09:46;;;;;;;40.40;16.50;;;;;;;;;;5116538;28;20058;-75
2023/03/19 03:12:11;;;;;;;40.35;16.55;;;;;;;;;;5115238;28;20050;-75
2023/03/19 03:14:37;;;;;;;43.40;16.02;;;;;;;;;;5115126;28;20108;-76
2023/03/19 03:17:02;;;;;;;39.72;16.45;;;;;;;;;;5131979;27;20069;-76
2023/03/19 03:19:28;;;;;;;35.33;16.08;;;;;;;;;;5115011;28;20524;-75
2023/03/19 03:21:54;;;;;;;46.95;18.98;;;;;;;;;;5115786;28;20023;-75
2023/03/19 03:24:19;;;;;;;50.95;19.30;;;;;;;;;;5114356;28;20032;-76
2023/03/19 03:26:45;;;;;;;59.10;24.48;;;;;;;;;;5116313;28;20028;-77
2023/03/19 03:29:11;;;;;;;56.45;21.42;;;;;;;;;;5114868;28;20080;-77
2023/03/19 03:31:36;;;;;;;56.53;17.92;;;;;;;;;;5114681;28;20024;-75
2023/03/19 03:34:01;;;;;;;41.75;16.85;;;;;;;;;;5114729;28;20027;-76
2023/03/19 03:36:27;;;;;;;35.58;14.40;;;;;;;;;;5131717;27;20422;-75
2023/03/19 03:38:53;;;;;;;40.83;15.80;;;;;;;;;;5115683;28;20418;-75
2023/03/19 03:41:19;;;;;;;39.30;15.88;;;;;;;;;;5114536;28;20076;-75
2023/03/19 03:43:44;;;;;;;33.83;14.35;;;;;;;;;;5097686;28;20036;-75
2023/03/19 03:46:10;;;;;;;36.45;14.27;;;;;;;;;;5115990;28;20024;-76
2023/03/19 03:48:35;;;;;;;33.08;14.00;;;;;;;;;;5114483;28;20069;-75
2023/03/19 03:51:02;;;;;;;35.42;14.38;;;;;;;;;;5115235;28;20042;-76
2023/03/19 03:53:27;;;;;;;41.10;15.25;;;;;;;;;;5115561;28;20441;-76
2023/03/19 03:55:52;;;;;;;32.75;14.75;;;;;;;;;;5114241;28;20069;-76
2023/03/19 03:58:18;;;;;;;40.55;13.70;;;;;;;;;;5115419;28;20076;-75
2023/03/19 04:00:45;;;;;;;32.92;13.13;;;;;;;;;;5114508;28;20118;-76
2023/03/19 04:03:10;;;;;;;33.42;13.30;;;;;;;;;;5112714;28;20038;-76
2023/03/19 04:08:19;;;;;;;30.33;12.65;;;;;;;;;;5099791;28;20116;-75
2023/03/19 04:10:45;;;;;;;34.88;13.75;;;;;;;;;;5113868;28;20486;-75
2023/03/19 04:13:10;;;;;;;37.15;13.63;;;;;;;;;;5114922;28;20024;-76
2023/03/19 04:15:36;;;;;;;37.17;13.85;;;;;;;;;;5114043;28;20027;-76
2023/03/19 04:18:02;;;;;;;40.88;15.48;;;;;;;;;;5113850;28;20069;-76
2023/03/19 04:20:27;;;;;;;35.67;15.48;;;;;;;;;;5113652;28;20485;-76
2023/03/19 04:22:53;;;;;;;37.65;15.30;;;;;;;;;;5113756;28;20042;-75
2023/03/19 04:25:18;;;;;;;38.03;14.93;;;;;;;;;;5113688;28;20081;-76
2023/03/19 04:27:45;;;;;;;40.83;15.07;;;;;;;;;;5079842;28;20065;-75
2023/03/19 04:30:11;;;;;;;33.85;14.43;;;;;;;;;;5130778;27;20028;-76
2023/03/19 04:32:36;;;;;;;39.33;15.43;;;;;;;;;;5113625;28;20039;-76
2023/03/19 04:35:02;;;;;;;46.25;16.80;;;;;;;;;;5113091;28;20039;-75
2023/03/19 04:37:28;;;;;;;57.00;20.80;;;;;;;;;;5096565;28;20031;-75
2023/03/19 04:39:54;;;;;;;48.15;17.90;;;;;;;;;;5130686;27;20447;-75
2023/03/19 04:42:19;;;;;;;42.40;17.48;;;;;;;;;;5096424;28;20051;-74
2023/03/19 04:44:44;;;;;;;40.10;16.92;;;;;;;;;;5113827;28;20050;-76
2023/03/19 04:47:10;;;;;;;49.92;17.35;;;;;;;;;;5114666;28;20023;-75
2023/03/19 04:49:35;;;;;;;45.63;16.67;;;;;;;;;;5096102;28;20027;-75
2023/03/19 04:52:01;;;;;;;59.90;23.52;;;;;;;;;;5113165;28;20118;-75
2023/03/19 04:54:27;;;;;;;45.30;19.30;;;;;;;;;;5096361;28;20028;-75
2023/03/19 04:56:52;;;;;;;46.70;18.73;;;;;;;;;;5113277;27;20083;-75
2023/03/19 04:59:18;;;;;;;42.45;17.90;;;;;;;;;;5113081;28;20105;-78
2023/03/19 05:01:43;;;;;;;44.65;17.35;;;;;;;;;;5114362;28;20372;-75
2023/03/19 05:04:09;;;;;;;43.50;18.55;;;;;;;;;;5112829;28;20074;-75
2023/03/19 05:06:36;;;;;;;42.13;17.17;;;;;;;;;;5112130;28;20046;-75
2023/03/19 05:09:02;;;;;;;48.72;19.27;;;;;;;;;;5113201;28;20119;-75
2023/03/19 05:11:28;;;;;;;51.58;18.95;;;;;;;;;;5113003;28;20024;-75
2023/03/19 05:13:53;;;;;;;55.60;20.88;;;;;;;;;;5113133;28;20092;-75
2023/03/19 05:16:19;;;;;;;50.72;21.15;;;;;;;;;;5114179;28;20033;-75
2023/03/19 05:18:44;;;;;;;57.00;22.17;;;;;;;;;;5113013;28;20035;-75
2023/03/19 05:21:11;;;;;;;51.97;21.50;;;;;;;;;;5113226;28;20107;-75
2023/03/19 05:23:36;;;;;;;60.13;23.02;;;;;;;;;;5116771;28;20366;-75
2023/03/19 05:26:02;;;;;;;65.43;23.83;;;;;;;;;;5083577;28;20118;-75
2023/03/19 05:28:27;;;;;;;66.20;22.42;;;;;;;;;;5118269;28;20381;-74
2023/03/19 05:30:53;;;;;;;62.38;23.40;;;;;;;;;;5118580;28;20059;-75
2023/03/19 05:33:18;;;;;;;72.10;27.23;;;;;;;;;;5099988;28;20396;-77
2023/03/19 05:35:44;;;;;;;74.20;29.00;;;;;;;;;;5100137;28;20035;-75
2023/03/19 05:38:10;;;;;;;83.32;31.63;;;;;;;;;;5118199;28;20019;-77
2023/03/19 05:40:36;;;;;;;85.03;32.80;;;;;;;;;;5083063;28;20066;-75
2023/03/19 05:43:01;;;;;;;87.65;32.67;;;;;;;;;;5099638;28;20441;-75
2023/03/19 05:45:26;;;;;;;76.97;29.77;;;;;;;;;;5151316;27;20024;-76
2023/03/19 05:47:52;;;;;;;75.88;28.40;;;;;;;;;;5099397;28;20400;-76
2023/03/19 05:50:18;;;;;;;76.75;27.98;;;;;;;;;;5099957;28;20024;-76
2023/03/19 05:52:43;;;;;;;75.07;29.00;;;;;;;;;;5117876;28;20127;-78
2023/03/19 05:55:09;;;;;;;83.57;32.60;;;;;;;;;;5082866;28;20063;-76
2023/03/19 05:57:35;;;;;;;75.63;29.65;;;;;;;;;;5116647;28;20028;-76
2023/03/19 06:00:00;;;;;;;71.53;29.05;;;;;;;;;;5116668;28;20110;-76
2023/03/19 06:02:26;;;;;;;66.95;26.27;;;;;;;;;;5116657;28;20138;-76
2023/03/19 06:04:51;;;;;;;75.95;28.05;;;;;;;;;;5151369;27;20031;-75
2023/03/19 06:07:17;;;;;;;84.10;31.27;;;;;;;;;;5115750;28;20475;-76
2023/03/19 06:09:42;;;;;;;110.72;39.78;;;;;;;;;;5099163;28;20448;-76
2023/03/19 06:12:07;;;;;;;188.35;91.97;;;;;;;;;;5116332;28;20122;-76
2023/03/19 06:14:33;;;;;;;115.43;46.28;;;;;;;;;;5117382;28;20027;-76
2023/03/19 06:16:58;;;;;;;230.85;90.28;;;;;;;;;;5116270;28;20023;-76
2023/03/19 06:19:24;;;;;;;140.18;52.20;;;;;;;;;;5116517;28;20043;-76
2023/03/19 06:21:51;;;;;;;139.55;54.47;;;;;;;;;;5117210;28;20057;-77
2023/03/19 06:24:16;;;;;;;104.50;35.95;;;;;;;;;;5133199;27;20054;-77
2023/03/19 06:26:42;;;;;;;129.98;53.75;;;;;;;;;;5099240;28;20441;-76
2023/03/19 06:29:07;;;;;;;97.55;39.33;;;;;;;;;;5115599;28;20039;-77
2023/03/19 06:31:33;;;;;;;104.43;36.35;;;;;;;;;;5150393;27;20046;-76
2023/03/19 06:33:58;;;;;;;91.05;35.17;;;;;;;;;;5117055;28;20418;-76
2023/03/19 06:36:24;;;;;;;84.72;32.33;;;;;;;;;;5117250;28;20055;-77
2023/03/19 06:38:50;;;;;;;85.32;33.75;;;;;;;;;;5115707;28;20027;-76
2023/03/19 06:41:16;;;;;;;104.03;36.80;;;;;;;;;;5115874;28;20035;-78
2023/03/19 06:43:42;;;;;;;108.18;40.42;;;;;;;;;;5098413;28;20039;-77
2023/03/19 06:46:08;;;;;;;112.95;41.60;;;;;;;;;;5116892;28;20034;-75
2023/03/19 06:48:33;;;;;;;115.38;43.95;;;;;;;;;;5116936;28;20027;-77
2023/03/19 06:51:00;;;;;;;118.13;45.38;;;;;;;;;;5116814;28;20027;-76
2023/03/19 06:53:26;;;;;;;109.78;44.15;;;;;;;;;;5117318;28;20027;-78
2023/03/19 06:55:51;;;;;;;114.82;43.53;;;;;;;;;;5115932;28;20442;-76
2023/03/19 06:58:17;;;;;;;84.65;38.60;;;;;;;;;;5132530;27;20020;-76
2023/03/19 07:00:42;;;;;;;79.57;37.25;;;;;;;;;;5116522;28;20020;-76
2023/03/19 07:03:08;;;;;;;83.30;35.50;;;;;;;;;;5116388;28;20461;-76
2023/03/19 07:05:33;;;;;;;71.30;34.60;;;;;;;;;;5115332;28;20069;-76
2023/03/19 07:07:59;;;;;;;71.07;34.90;;;;;;;;;;5116427;28;20024;-76
2023/03/19 07:10:24;;;;;;;66.95;33.22;;;;;;;;;;5097252;28;20027;-77
2023/03/19 07:12:50;;;;;;;69.00;33.08;;;;;;;;;;5114800;28;20032;-76
2023/03/19 07:15:16;;;;;;;70.07;33.35;;;;;;;;;;5116351;28;20102;-75
2023/03/19 07:17:44;;;;;;;62.83;32.00;;;;;;;;;;5116288;28;20027;-76
2023/03/19 07:20:10;;;;;;;64.18;30.92;;;;;;;;;;5132292;27;20426;-76
2023/03/19 07:22:36;;;;;;;57.05;31.33;;;;;;;;;;5115107;28;20038;-76
2023/03/19 07:25:01;;;;;;;62.30;32.47;;;;;;;;;;5116056;28;20027;-76
2023/03/19 07:27:27;;;;;;;63.88;34.05;;;;;;;;;;5115750;28;20023;-76
2023/03/19 07:29:54;;;;;;;62.88;32.92;;;;;;;;;;5116325;28;20040;-76
2023/03/19 07:32:20;;;;;;;62.90;34.05;;;;;;;;;;5114869;28;20053;-75
2023/03/19 07:34:45;;;;;;;70.05;36.15;;;;;;;;;;5116333;28;20024;-77
2023/03/19 07:37:10;;;;;;;76.90;40.08;;;;;;;;;;5115929;28;20508;-76
2023/03/19 07:39:36;;;;;;;72.13;37.55;;;;;;;;;;5080635;28;20131;-77
2023/03/19 07:42:01;;;;;;;68.60;33.28;;;;;;;;;;5115460;28;20369;-75
2023/03/19 07:44:27;;;;;;;62.63;32.38;;;;;;;;;;5115313;28;20063;-76
2023/03/19 07:46:52;;;;;;;64.85;32.83;;;;;;;;;;5115759;28;20070;-76
2023/03/19 07:49:18;;;;;;;59.53;32.72;;;;;;;;;;5115757;28;20032;-77
2023/03/19 07:51:43;;;;;;;63.47;33.35;;;;;;;;;;5114672;28;20031;-78
2023/03/19 07:54:09;;;;;;;64.55;34.70;;;;;;;;;;5097451;28;20038;-77
2023/03/19 07:56:35;;;;;;;64.53;33.10;;;;;;;;;;5097314;28;20355;-75
2023/03/19 07:59:00;;;;;;;74.55;35.40;;;;;;;;;;5097555;28;20039;-76
2023/03/19 08:01:26;;;;;;;63.40;34.15;;;;;;;;;;5114611;28;20116;-76
2023/03/19 08:03:51;;;;;;;68.55;34.85;;;;;;;;;;5115595;28;20449;-76
2023/03/19 08:06:16;;;;;;;60.75;31.40;;;;;;;;;;5115650;28;20096;-76
2023/03/19 08:08:42;;;;;;;61.20;30.45;;;;;;;;;;5115444;28;20031;-76
2023/03/19 08:11:07;;;;;;;53.08;28.90;;;;;;;;;;5114638;28;20035;-75
2023/03/19 08:13:33;;;;;;;62.90;31.10;;;;;;;;;;5114811;28;20031;-75
2023/03/19 08:15:58;;;;;;;78.55;39.03;;;;;;;;;;5096786;28;20051;-75
2023/03/19 08:18:24;;;;;;;73.78;38.72;;;;;;;;;;5115631;28;20114;-75
2023/03/19 08:20:50;;;;;;;75.65;38.45;;;;;;;;;;5115452;28;20032;-75
2023/03/19 08:23:15;;;;;;;72.20;40.30;;;;;;;;;;5114915;28;20365;-77
2023/03/19 08:25:41;;;;;;;84.50;43.00;;;;;;;;;;5114897;28;20428;-76
2023/03/19 08:28:08;;;;;;;80.10;40.92;;;;;;;;;;5131076;27;20123;-75
2023/03/19 08:30:37;;;;;;;76.22;39.40;;;;;;;;;;5130684;27;20035;-75
2023/03/19 08:33:02;;;;;;;68.85;35.70;;;;;;;;;;5131287;27;20027;-75
2023/03/19 08:35:28;;;;;;;63.42;32.78;;;;;;;;;;5113659;28;20035;-76
2023/03/19 08:37:53;;;;;;;67.00;34.65;;;;;;;;;;5096709;28;20444;-75
2023/03/19 08:40:19;;;;;;;61.70;32.33;;;;;;;;;;5113519;28;20039;-78
2023/03/19 08:42:45;;;;;;;61.67;32.03;;;;;;;;;;5096638;28;20364;-77
2023/03/19 08:45:11;;;;;;;67.45;32.15;;;;;;;;;;5114951;28;20042;-77
2023/03/19 08:47:37;;;;;;;62.63;32.22;;;;;;;;;;5148103;27;20023;-77
2023/03/19 08:50:03;;;;;;;66.25;31.92;;;;;;;;;;5130803;27;20036;-77
2023/03/19 08:52:29;;;;;;;58.53;28.83;;;;;;;;;;5130416;27;20043;-77
2023/03/19 08:54:54;;;;;;;66.03;30.80;;;;;;;;;;5113109;28;20026;-77
2023/03/19 08:57:20;;;;;;;66.00;29.67;;;;;;;;;;5113586;28;20364;-77
2023/03/19 08:59:45;;;;;;;61.60;29.95;;;;;;;;;;5113448;28;20057;-77
2023/03/19 09:02:11;;;;;;;57.97;28.80;;;;;;;;;;5114422;28;20020;-77
2023/03/19 09:04:40;;;;;;;75.47;35.67;;;;;;;;;;5113310;28;20031;-77
2023/03/19 09:07:05;;;;;;;61.20;28.52;;;;;;;;;;5114705;27;20031;-78
2023/03/19 09:09:31;;;;;;;72.03;36.20;;;;;;;;;;5096225;28;20031;-76
2023/03/19 09:11:56;;;;;;;82.50;38.15;;;;;;;;;;5113136;28;20034;-76
2023/03/19 09:14:22;;;;;;;78.80;35.67;;;;;;;;;;5112151;28;20160;-77
2023/03/19 09:16:48;;;;;;;80.63;35.53;;;;;;;;;;5113611;28;20024;-77
2023/03/19 09:19:13;;;;;;;85.97;39.58;;;;;;;;;;5113125;28;20024;-77
2023/03/19 09:21:38;;;;;;;91.30;41.40;;;;;;;;;;5112751;28;20027;-77
2023/03/19 09:24:04;;;;;;;88.38;40.35;;;;;;;;;;5114080;28;20036;-76
2023/03/19 09:26:30;;;;;;;73.90;33.47;;;;;;;;;;5096359;28;20517;-77
2023/03/19 09:28:55;;;;;;;89.03;35.60;;;;;;;;;;5114229;28;20081;-76
2023/03/19 09:31:20;;;;;;;80.15;37.70;;;;;;;;;;5114036;28;20023;-77
2023/03/19 09:33:46;;;;;;;79.38;35.50;;;;;;;;;;5112856;28;20364;-77
2023/03/19 09:36:12;;;;;;;84.38;35.08;;;;;;;;;;5112953;28;20043;-77
2023/03/19 09:38:38;;;;;;;74.65;33.10;;;;;;;;;;5112765;28;20051;-77
2023/03/19 09:41:15;;;;;;;73.75;31.67;;;;;;;;;;5095717;28;20362;-77
2023/03/19 09:43:59;;;;;;;66.13;29.40;;;;;;;;;;5112838;28;20032;-76
2023/03/19 09:46:30;;;;;;;71.82;28.48;;;;;;;;;;5112714;28;20066;-78
2023/03/19 09:49:15;;;;;;;63.17;27.98;;;;;;;;;;5113927;28;20028;-77
2023/03/19 09:51:46;;;;;;;64.82;29.50;;;;;;;;;;5113127;28;20086;-77
2023/03/19 09:54:45;;;;;;;80.75;30.67;;;;;;;;;;5112393;28;20034;-77
2023/03/19 09:57:10;;;;;;;77.13;31.45;;;;;;;;;;5112818;28;20148;-76
2023/03/19 09:59:36;;;;;;;73.25;30.85;;;;;;;;;;5112419;28;20032;-76
2023/03/19 10:02:20;;;;;;;71.65;29.52;;;;;;;;;;5095655;28;20464;-76
2023/03/19 10:04:57;;;;;;;70.10;28.05;;;;;;;;;;5114029;28;20063;-76
2023/03/19 10:07:45;;;;;;;77.07;28.30;;;;;;;;;;5112216;28;20020;-77
2023/03/19 10:10:28;;;;;;;79.38;29.52;;;;;;;;;;5117586;28;20031;-76
2023/03/19 10:13:13;;;;;;;69.45;27.02;;;;;;;;;;5117562;28;20135;-77
2023/03/19 10:15:38;;;;;;;64.22;24.08;;;;;;;;;;5115154;28;20118;-76
2023/03/19 10:18:10;;;;;;;64.88;24.90;;;;;;;;;;5099008;28;20470;-77
2023/03/19 10:20:43;;;;;;;62.20;24.27;;;;;;;;;;5116084;28;20024;-75
2023/03/19 10:23:36;;;;;;;59.38;24.80;;;;;;;;;;5115817;28;20020;-76
2023/03/19 10:26:03;;;;;;;67.57;25.33;;;;;;;;;;5115820;28;20077;-76
2023/03/19 10:28:29;;;;;;;63.50;24.90;;;;;;;;;;5117496;28;20347;-76
2023/03/19 10:31:09;;;;;;;67.15;27.17;;;;;;;;;;5099156;28;20024;-76
2023/03/19 10:33:50;;;;;;;64.05;25.52;;;;;;;;;;5115958;28;20051;-77
2023/03/19 10:36:15;;;;;;;65.22;24.85;;;;;;;;;;5134447;27;20115;-75
2023/03/19 10:38:41;;;;;;;61.88;22.15;;;;;;;;;;5081921;28;20059;-76
2023/03/19 10:41:35;;;;;;;62.22;23.75;;;;;;;;;;5115976;28;20433;-79
2023/03/19 10:44:01;;;;;;;54.75;20.80;;;;;;;;;;5116931;28;20031;-80
2023/03/19 10:46:27;;;;;;;54.10;21.33;;;;;;;;;;5133718;27;20100;-83
2023/03/19 10:48:53;;;;;;;53.00;23.08;;;;;;;;;;5082386;28;20468;-82
2023/03/19 10:51:23;;;;;;;50.22;21.58;;;;;;;;;;5102355;28;20448;-82
2023/03/19 10:53:48;;;;;;;49.63;20.65;;;;;;;;;;5135522;27;20059;-82
2023/03/19 10:56:22;;;;;;;54.88;21.35;;;;;;;;;;5098483;28;20058;-76
2023/03/19 10:59:01;;;;;;;48.35;20.33;;;;;;;;;;5115793;28;20027;-76
2023/03/19 11:01:35;;;;;;;52.35;22.42;;;;;;;;;;5115955;28;20164;-77
2023/03/19 11:04:02;;;;;;;50.72;22.25;;;;;;;;;;5116688;28;20051;-76
2023/03/19 11:06:34;;;;;;;48.53;22.10;;;;;;;;;;5114990;28;20461;-76
2023/03/19 11:09:09;;;;;;;46.40;19.83;;;;;;;;;;5115196;28;20031;-77
2023/03/19 11:11:41;;;;;;;48.35;19.95;;;;;;;;;;5115387;28;20093;-76
2023/03/19 11:14:17;;;;;;;47.55;20.75;;;;;;;;;;5115301;28;20028;-77
2023/03/19 11:17:22;;;;;;;51.17;20.65;;;;;;;;;;5125451;27;20343;-76
2023/03/19 11:19:53;;;;;;;47.95;20.35;;;;;;;;;;5098897;28;20460;-77
2023/03/19 11:22:21;;;;;;;45.03;20.23;;;;;;;;;;5116409;28;20055;-76
2023/03/19 11:24:55;;;;;;;47.28;20.38;;;;;;;;;;5132180;27;20028;-76
2023/03/19 11:27:28;;;;;;;45.03;18.83;;;;;;;;;;5114954;28;20506;-76
2023/03/19 11:29:54;;;;;;;47.45;19.52;;;;;;;;;;5098019;28;20040;-76
2023/03/19 11:32:41;;;;;;;48.25;19.08;;;;;;;;;;5115011;28;20046;-77
2023/03/19 11:35:30;;;;;;;49.08;19.27;;;;;;;;;;5115649;28;20027;-75
2023/03/19 11:37:57;;;;;;;48.58;19.88;;;;;;;;;;5100670;28;20084;-76
2023/03/19 11:40:54;;;;;;;49.95;18.55;;;;;;;;;;5114830;28;20031;-77
2023/03/19 11:43:40;;;;;;;48.05;20.10;;;;;;;;;;5131658;27;20420;-76
2023/03/19 11:46:24;;;;;;;45.70;18.08;;;;;;;;;;5115701;28;20059;-76
2023/03/19 11:49:12;;;;;;;50.72;19.00;;;;;;;;;;5115476;28;20465;-76
2023/03/19 11:51:51;;;;;;;43.35;18.90;;;;;;;;;;5114568;28;20115;-76
2023/03/19 11:54:28;;;;;;;43.05;17.70;;;;;;;;;;5114813;28;20055;-76
2023/03/19 11:57:24;;;;;;;40.63;17.70;;;;;;;;;;5114647;28;20376;-76
2023/03/19 12:00:02;;;;;;;38.28;16.88;;;;;;;;;;5083823;28;20044;-77
2023/03/19 12:02:42;;;;;;;37.97;17.83;;;;;;;;;;5115517;28;20070;-76
2023/03/19 12:05:23;;;;;;;41.28;17.38;;;;;;;;;;5115465;28;20023;-77
2023/03/19 12:08:41;;;;;;;38.55;17.02;;;;;;;;;;5097376;28;20034;-76
2023/03/19 12:11:32;;;;;;;42.55;18.45;;;;;;;;;;5081308;27;20043;-76
2023/03/19 12:14:09;;;;;;;42.05;18.05;;;;;;;;;;5104386;28;20362;-76
2023/03/19 12:17:22;;;;;;;45.67;18.52;;;;;;;;;;5114082;28;20023;-77
2023/03/19 12:19:48;;;;;;;42.47;17.05;;;;;;;;;;5059716;28;20138;-77
2023/03/19 12:22:32;;;;;;;39.80;18.92;;;;;;;;;;5114099;28;20059;-79
2023/03/19 12:25:22;;;;;;;44.30;17.67;;;;;;;;;;5114063;28;20130;-76
2023/03/19 12:28:38;;;;;;;44.28;18.10;;;;;;;;;;5114962;28;20361;-78
2023/03/19 12:31:30;;;;;;;46.65;18.73;;;;;;;;;;5051971;28;20029;-76
2023/03/19 12:34:20;;;;;;;49.80;19.08;;;;;;;;;;5113693;28;20126;-76
2023/03/19 12:37:07;;;;;;;50.05;19.30;;;;;;;;;;5132115;27;20019;-75
2023/03/19 12:39:34;;;;;;;45.88;18.05;;;;;;;;;;5113458;28;20096;-75
2023/03/19 12:42:00;;;;;;;35.33;16.83;;;;;;;;;;5079952;28;20047;-76
2023/03/19 12:44:32;;;;;;;40.45;17.33;;;;;;;;;;5096762;28;20030;-76
2023/03/19 12:47:21;;;;;;;41.70;17.40;;;;;;;;;;5130777;27;20027;-76
2023/03/19 12:50:07;;;;;;;38.10;17.15;;;;;;;;;;5132655;27;20020;-76
2023/03/19 12:52:39;;;;;;;44.63;17.27;;;;;;;;;;5133062;27;20036;-76
2023/03/19 12:55:08;;;;;;;37.88;16.27;;;;;;;;;;5113935;28;20024;-75
2023/03/19 12:57:57;;;;;;;38.45;16.23;;;;;;;;;;5096304;28;20049;-75
2023/03/19 13:00:31;;;;;;;42.80;16.25;;;;;;;;;;5113601;28;20425;-75
2023/03/19 13:03:14;;;;;;;40.80;16.90;;;;;;;;;;5130531;27;20035;-76
2023/03/19 13:06:16;;;;;;;37.22;16.17;;;;;;;;;;5113268;28;20019;-76
2023/03/19 13:09:07;;;;;;;37.08;16.17;;;;;;;;;;5088733;28;20530;-76
2023/03/19 13:11:48;;;;;;;38.70;16.23;;;;;;;;;;5100148;28;20028;-76
2023/03/19 13:14:30;;;;;;;37.20;16.23;;;;;;;;;;5130139;27;20122;-76
2023/03/19 13:17:30;;;;;;;46.33;15.73;;;;;;;;;;5132071;27;20023;-76
2023/03/19 13:19:55;;;;;;;36.35;15.18;;;;;;;;;;5112148;28;20028;-76
2023/03/19 13:22:29;;;;;;;41.40;17.52;;;;;;;;;;5095808;28;20035;-76
2023/03/19 13:24:55;;;;;;;39.25;17.35;;;;;;;;;;5130246;27;20070;-75
2023/03/19 13:27:22;;;;;;;40.63;15.50;;;;;;;;;;5096032;28;20043;-78
2023/03/19 13:30:06;;;;;;;39.95;16.58;;;;;;;;;;5114167;28;20080;-79
2023/03/19 13:32:34;;;;;;;32.33;15.77;;;;;;;;;;5113169;28;20073;-78
2023/03/19 13:35:18;;;;;;;43.72;19.90;;;;;;;;;;5114149;28;20088;-78
2023/03/19 13:37:44;;;;;;;35.80;15.90;;;;;;;;;;5114196;28;20034;-78
2023/03/19 13:40:48;;;;;;;36.05;15.35;;;;;;;;;;5095895;28;20440;-78
2023/03/19 13:43:28;;;;;;;38.05;17.13;;;;;;;;;;5114199;28;20035;-76
2023/03/19 13:46:12;;;;;;;38.58;16.02;;;;;;;;;;5117853;28;20030;-77
2023/03/19 13:48:44;;;;;;;39.90;16.17;;;;;;;;;;5118729;28;20108;-76
2023/03/19 13:51:15;;;;;;;36.42;15.75;;;;;;;;;;5117952;28;20032;-76
2023/03/19 13:54:00;;;;;;;39.10;18.15;;;;;;;;;;5116695;28;20031;-76
2023/03/19 13:56:26;;;;;;;31.58;14.73;;;;;;;;;;5118061;28;20031;-76
2023/03/19 13:59:13;;;;;;;31.33;14.32;;;;;;;;;;5116594;28;20032;-77
2023/03/19 14:01:40;;;;;;;34.30;15.27;;;;;;;;;;5102735;28;20372;-78
2023/03/19 14:04:26;;;;;;;33.58;15.80;;;;;;;;;;5133753;27;20031;-76
2023/03/19 14:06:56;;;;;;;34.53;15.23;;;;;;;;;;5099758;28;20042;-76
2023/03/19 14:09:43;;;;;;;32.53;14.68;;;;;;;;;;5133984;27;20031;-76
2023/03/19 14:12:14;;;;;;;29.65;13.88;;;;;;;;;;5116614;28;20034;-76
2023/03/19 14:14:57;;;;;;;33.17;14.57;;;;;;;;;;5116245;28;20092;-76
2023/03/19 14:17:40;;;;;;;34.75;14.30;;;;;;;;;;5134586;27;20024;-76
2023/03/19 14:20:11;;;;;;;36.40;14.45;;;;;;;;;;5099355;28;20116;-76
2023/03/19 14:22:55;;;;;;;40.42;16.50;;;;;;;;;;5115032;28;20066;-75
2023/03/19 14:25:22;;;;;;;37.00;16.65;;;;;;;;;;5116145;28;20366;-75
2023/03/19 14:27:54;;;;;;;32.47;14.75;;;;;;;;;;5133020;27;20015;-76
2023/03/19 14:30:30;;;;;;;29.73;14.25;;;;;;;;;;5133362;27;20063;-76
2023/03/19 14:32:57;;;;;;;32.03;14.63;;;;;;;;;;5150417;27;20035;-75
2023/03/19 14:35:22;;;;;;;33.78;14.48;;;;;;;;;;5116060;28;20023;-75